Cobalt, Connecticut
Current Conditions -  °F | °C
As of 10:15 AM on Saturday 25 Oct 2014 (Local Time) from KSNC Reporting Station
Clear Clear  
Wind Chill: 14°   Ceiling: Unl
Heat Index: 14°   Visibility: 10mi
Dew Point:   Wind: 7mph
Humidity: 41%   Direction: 310°NW
Pressure: 29.8"   Gusts: NA
Location:  41.56°N, 72.56°W
Report Text: KSNC 251415Z AUTO 31006KT 10SM CLR 14/01 A2980 RMK AO2
Loading
Personal Weather Stations






























Interactive Weather Map
Tropical Storm Tracking
New forecast layout! Learn more

10-Day Weather Forecast

Advertisements
Track Severe Weather on mobile